Time;durP1;ratioP1;P1;durP2;ratioP2;P2;SDS_P1;SDS_P2;PMS_P1;PMS_P2;Temp;Humidity;BMP_temperature;BMP_pressure;BME280_temperature;BME280_humidity;BME280_pressure;Samples;Min_cycle;Max_cycle;Signal;HPM_P1;HPM_P2
2022/08/18 00:00:25;;;;;;;4.70;4.30;;;20.40;99.90;;;;;;494024;241;29412;-70
2022/08/18 00:02:26;;;;;;;4.93;4.53;;;20.40;99.90;;;;;;494013;241;29315;-70
2022/08/18 00:04:27;;;;;;;4.90;4.50;;;20.40;99.90;;;;;;494057;241;28983;-74
2022/08/18 00:06:29;;;;;;;4.57;4.27;;;20.40;99.90;;;;;;494006;241;28960;-70
2022/08/18 00:08:30;;;;;;;4.60;4.30;;;20.40;99.90;;;;;;494034;241;28942;-70
2022/08/18 00:10:31;;;;;;;4.80;4.40;;;20.40;99.90;;;;;;494040;241;28798;-69
2022/08/18 00:12:32;;;;;;;4.60;4.30;;;20.40;99.90;;;;;;494007;241;28927;-70
2022/08/18 00:14:34;;;;;;;3.87;3.57;;;20.40;99.90;;;;;;494029;241;29311;-72
2022/08/18 00:16:35;;;;;;;5.47;4.90;;;20.40;99.90;;;;;;494008;241;28884;-69
2022/08/18 00:18:36;;;;;;;4.57;4.20;;;20.40;99.90;;;;;;494046;241;28938;-71
2022/08/18 00:20:37;;;;;;;4.57;4.20;;;20.40;99.90;;;;;;493970;241;28837;-69
2022/08/18 00:22:42;;;;;;;4.60;4.30;;;20.40;99.90;;;;;;493995;241;29389;-70
2022/08/18 00:24:43;;;;;;;4.10;3.80;;;20.40;99.90;;;;;;494043;241;28798;-70
2022/08/18 00:26:44;;;;;;;7.50;4.00;;;20.40;99.90;;;;;;493971;241;28871;-71
2022/08/18 00:28:45;;;;;;;5.23;4.63;;;20.40;99.90;;;;;;494041;241;28806;-69
2022/08/18 00:30:47;;;;;;;4.33;3.93;;;20.30;99.90;;;;;;494015;241;28839;-71
2022/08/18 00:32:48;;;;;;;4.10;3.80;;;20.40;99.90;;;;;;494031;241;30208;-69
2022/08/18 00:34:49;;;;;;;4.83;4.43;;;20.30;99.90;;;;;;494018;241;29284;-69
2022/08/18 00:36:50;;;;;;;4.63;4.30;;;20.30;99.90;;;;;;493823;241;29321;-72
2022/08/18 00:38:52;;;;;;;5.00;4.60;;;20.30;99.90;;;;;;494031;241;28906;-70
2022/08/18 00:40:53;;;;;;;4.20;3.80;;;20.30;99.90;;;;;;494024;241;28833;-70
2022/08/18 00:42:54;;;;;;;4.60;4.20;;;20.30;99.90;;;;;;493901;241;28935;-70
2022/08/18 00:44:56;;;;;;;4.30;3.90;;;20.30;99.90;;;;;;494048;241;28912;-71
2022/08/18 00:46:57;;;;;;;4.70;4.30;;;20.30;99.90;;;;;;493997;241;28828;-73
2022/08/18 00:48:58;;;;;;;4.00;3.70;;;20.20;99.90;;;;;;494046;241;28924;-69
2022/08/18 00:50:59;;;;;;;4.03;3.73;;;20.20;99.90;;;;;;494026;241;28959;-69
2022/08/18 00:53:00;;;;;;;3.47;3.27;;;20.20;99.90;;;;;;494011;241;28812;-70
2022/08/18 00:55:02;;;;;;;4.63;4.23;;;20.20;99.90;;;;;;494026;241;28842;-69
2022/08/18 00:57:03;;;;;;;4.93;4.10;;;20.10;99.90;;;;;;493956;241;29315;-72
2022/08/18 00:59:04;;;;;;;4.03;3.73;;;20.10;99.90;;;;;;493999;241;29257;-70
2022/08/18 01:01:05;;;;;;;4.30;4.00;;;20.10;99.90;;;;;;494023;241;29351;-72
2022/08/18 01:03:07;;;;;;;3.53;3.33;;;20.00;99.90;;;;;;494043;241;29264;-70
2022/08/18 01:05:08;;;;;;;4.43;4.13;;;19.90;99.90;;;;;;493972;241;28940;-70
2022/08/18 01:07:09;;;;;;;4.40;4.00;;;19.90;99.90;;;;;;493964;241;28880;-72
2022/08/18 01:09:10;;;;;;;4.53;4.23;;;19.80;99.90;;;;;;494044;241;28917;-70
2022/08/18 01:11:12;;;;;;;4.83;4.43;;;19.80;99.90;;;;;;494035;241;28832;-70
2022/08/18 01:13:13;;;;;;;4.70;4.07;;;19.80;99.90;;;;;;494038;241;28805;-70
2022/08/18 01:15:14;;;;;;;4.40;4.10;;;19.70;99.90;;;;;;494024;241;28856;-70
2022/08/18 01:21:55;;;;;;;6.00;4.13;;;19.60;99.90;;;;;;494045;241;29240;-70
2022/08/18 01:23:56;;;;;;;5.00;4.47;;;19.50;99.90;;;;;;494034;241;29379;-70
2022/08/18 01:26:01;;;;;;;4.40;4.10;;;19.50;99.90;;;;;;494023;241;28996;-70
2022/08/18 01:28:02;;;;;;;4.13;3.83;;;19.40;99.90;;;;;;493982;241;28863;-71
2022/08/18 01:30:03;;;;;;;4.40;4.10;;;19.30;99.90;;;;;;493953;241;29268;-71
2022/08/18 01:32:04;;;;;;;4.57;4.17;;;19.30;99.90;;;;;;493989;241;28927;-72
2022/08/18 01:34:05;;;;;;;4.27;3.97;;;19.30;99.90;;;;;;494031;241;28805;-70
2022/08/18 01:36:06;;;;;;;4.73;4.33;;;19.30;99.90;;;;;;493819;241;29320;-72
2022/08/18 01:38:08;;;;;;;5.60;4.27;;;19.20;99.90;;;;;;494035;241;29339;-70
2022/08/18 01:40:09;;;;;;;4.10;3.80;;;19.20;99.90;;;;;;494021;241;29406;-70
2022/08/18 01:42:10;;;;;;;3.90;3.60;;;19.10;99.90;;;;;;494005;241;29301;-74
2022/08/18 01:44:11;;;;;;;4.67;4.27;;;19.10;99.90;;;;;;494021;241;28876;-70
2022/08/18 01:46:13;;;;;;;4.40;4.10;;;19.00;99.90;;;;;;493934;241;28844;-71
2022/08/18 01:48:14;;;;;;;4.20;3.80;;;19.00;99.90;;;;;;494004;241;28790;-70
2022/08/18 01:50:15;;;;;;;3.97;3.77;;;19.00;99.90;;;;;;493988;241;28935;-70
2022/08/18 01:52:19;;;;;;;4.50;4.10;;;18.90;99.90;;;;;;494026;241;28940;-74
2022/08/18 01:54:18;;;;;;;4.57;4.27;;;18.80;99.90;;;;;;493831;241;28871;-70
2022/08/18 01:56:19;;;;;;;4.60;4.20;;;18.90;99.90;;;;;;493882;241;28848;-70
2022/08/18 01:58:26;;;;;;;4.23;3.93;;;18.90;99.90;;;;;;494000;241;28856;-69
2022/08/18 02:00:23;;;;;;;4.93;4.53;;;18.90;99.90;;;;;;493514;241;29266;-70
2022/08/18 02:02:23;;;;;;;4.47;4.13;;;18.90;99.90;;;;;;493892;241;29391;-71
2022/08/18 02:04:24;;;;;;;4.77;4.37;;;18.90;99.90;;;;;;494041;241;29336;-70
2022/08/18 02:06:25;;;;;;;4.27;3.97;;;18.90;99.90;;;;;;493968;241;29409;-70
2022/08/18 02:08:26;;;;;;;5.27;4.87;;;18.80;99.90;;;;;;494034;241;28869;-70
2022/08/18 02:10:28;;;;;;;5.30;4.80;;;18.80;99.90;;;;;;494040;241;28933;-70
2022/08/18 02:12:29;;;;;;;5.10;4.70;;;18.80;99.90;;;;;;494026;241;28912;-71
2022/08/18 02:14:30;;;;;;;4.47;4.07;;;18.70;99.90;;;;;;494006;241;28807;-70
2022/08/18 02:16:32;;;;;;;4.60;4.20;;;18.70;99.90;;;;;;493983;241;28849;-70
2022/08/18 02:18:33;;;;;;;4.30;4.00;;;18.80;99.90;;;;;;494018;241;28942;-73
2022/08/18 02:20:34;;;;;;;4.40;4.00;;;18.70;99.90;;;;;;494030;241;28930;-70
2022/08/18 02:22:35;;;;;;;7.90;4.23;;;18.70;99.90;;;;;;494038;241;28841;-71
2022/08/18 02:24:36;;;;;;;4.53;4.23;;;18.70;99.90;;;;;;494007;241;29258;-70
2022/08/18 02:26:38;;;;;;;4.80;4.40;;;18.60;99.90;;;;;;493956;241;29412;-70
2022/08/18 02:28:39;;;;;;;4.43;4.07;;;18.60;99.90;;;;;;494063;241;29412;-70
2022/08/18 02:30:40;;;;;;;5.60;4.70;;;18.60;99.90;;;;;;494058;241;29282;-69
2022/08/18 02:32:41;;;;;;;5.30;4.10;;;18.50;99.90;;;;;;494059;241;28832;-70
2022/08/18 02:34:43;;;;;;;4.33;4.03;;;18.50;99.90;;;;;;494032;241;28816;-70
2022/08/18 02:36:44;;;;;;;4.40;4.10;;;18.60;99.90;;;;;;493806;241;28837;-69
2022/08/18 02:38:45;;;;;;;6.20;5.30;;;18.60;99.90;;;;;;494059;241;28826;-70
2022/08/18 02:40:46;;;;;;;4.20;3.90;;;18.60;99.90;;;;;;494032;241;28872;-69
2022/08/18 02:42:48;;;;;;;5.00;4.50;;;18.60;99.90;;;;;;494071;241;28860;-71
2022/08/18 02:44:49;;;;;;;4.50;4.20;;;18.60;99.90;;;;;;494036;241;28803;-70
2022/08/18 02:46:50;;;;;;;4.93;4.53;;;18.50;99.90;;;;;;493987;241;28845;-70
2022/08/18 02:48:52;;;;;;;4.73;4.33;;;18.50;99.90;;;;;;494057;241;29369;-72
2022/08/18 02:50:53;;;;;;;4.83;4.53;;;18.40;99.90;;;;;;494020;241;29285;-70
2022/08/18 02:52:54;;;;;;;4.90;4.50;;;18.30;99.90;;;;;;494041;241;29395;-70
2022/08/18 02:54:55;;;;;;;6.10;5.57;;;18.30;99.90;;;;;;494036;241;29359;-69
2022/08/18 02:56:56;;;;;;;4.87;4.43;;;18.20;99.90;;;;;;494003;241;28851;-70
2022/08/18 02:58:58;;;;;;;5.37;4.87;;;18.30;99.90;;;;;;494095;241;28855;-72
2022/08/18 03:00:59;;;;;;;5.50;5.10;;;18.40;99.90;;;;;;494057;241;28831;-70
2022/08/18 03:03:01;;;;;;;5.53;5.03;;;18.30;99.90;;;;;;494056;241;28836;-70
2022/08/18 03:05:01;;;;;;;5.10;4.70;;;18.40;99.90;;;;;;493958;241;28843;-69
2022/08/18 03:07:03;;;;;;;5.50;4.47;;;18.40;99.90;;;;;;493963;241;28847;-69
2022/08/18 03:09:04;;;;;;;4.90;4.40;;;18.40;99.90;;;;;;493979;241;29182;-72
2022/08/18 03:11:05;;;;;;;5.67;5.17;;;18.40;99.90;;;;;;494022;241;28915;-70
2022/08/18 03:13:06;;;;;;;5.03;4.63;;;18.40;99.90;;;;;;493973;241;29325;-70
2022/08/18 03:15:08;;;;;;;5.27;4.87;;;18.40;99.90;;;;;;494012;241;29417;-69
2022/08/18 03:17:09;;;;;;;5.03;4.63;;;18.30;99.90;;;;;;493956;241;29280;-70
2022/08/18 03:19:14;;;;;;;4.40;4.10;;;18.20;99.90;;;;;;494042;237;29351;-72
2022/08/18 03:21:11;;;;;;;7.87;4.50;;;18.20;99.90;;;;;;493665;241;28819;-70
2022/08/18 03:23:13;;;;;;;5.10;4.70;;;18.20;99.90;;;;;;494015;241;28838;-70
2022/08/18 03:25:14;;;;;;;4.57;4.27;;;18.10;99.90;;;;;;494026;241;28903;-71
2022/08/18 03:27:15;;;;;;;4.70;4.30;;;18.10;99.90;;;;;;493988;241;28911;-70
2022/08/18 03:29:16;;;;;;;5.20;4.80;;;18.20;99.90;;;;;;494030;241;28841;-72
2022/08/18 03:31:18;;;;;;;4.70;4.30;;;18.20;99.90;;;;;;494020;240;28856;-70
2022/08/18 03:33:19;;;;;;;5.53;4.40;;;18.20;99.90;;;;;;494032;241;28923;-69
2022/08/18 03:35:20;;;;;;;5.07;4.67;;;18.30;99.90;;;;;;494032;241;28839;-69
2022/08/18 03:37:21;;;;;;;4.93;4.53;;;18.30;99.90;;;;;;493761;241;29349;-69
2022/08/18 03:39:23;;;;;;;4.40;4.10;;;18.30;99.90;;;;;;494037;241;29336;-71
2022/08/18 03:41:24;;;;;;;4.73;4.33;;;18.30;99.90;;;;;;494019;241;29245;-70
2022/08/18 03:43:25;;;;;;;4.53;4.13;;;18.30;99.90;;;;;;494033;241;29313;-71
2022/08/18 03:45:30;;;;;;;4.90;4.50;;;18.30;99.90;;;;;;494041;241;28954;-73
2022/08/18 03:47:28;;;;;;;4.60;4.30;;;18.30;99.90;;;;;;493645;241;28948;-69
2022/08/18 03:49:29;;;;;;;5.00;4.60;;;18.30;99.90;;;;;;494018;241;28915;-70
2022/08/18 03:51:33;;;;;;;4.70;4.30;;;18.30;99.90;;;;;;494031;241;28921;-69
2022/08/18 03:53:34;;;;;;;4.60;4.20;;;18.30;99.90;;;;;;494045;241;28892;-70
2022/08/18 03:55:35;;;;;;;4.83;4.43;;;18.30;99.90;;;;;;494005;241;28924;-70
2022/08/18 03:57:37;;;;;;;5.20;4.70;;;18.30;99.90;;;;;;493999;241;28943;-70
2022/08/18 03:59:42;;;;;;;4.17;3.87;;;18.30;99.90;;;;;;494053;241;28926;-69
2022/08/18 04:01:39;;;;;;;4.60;4.20;;;18.30;99.90;;;;;;493669;241;28849;-71
2022/08/18 04:03:41;;;;;;;4.87;4.53;;;18.30;99.90;;;;;;494024;241;29249;-70
2022/08/18 04:05:42;;;;;;;4.77;4.47;;;18.30;99.90;;;;;;494032;241;29338;-70
2022/08/18 04:07:43;;;;;;;5.07;4.63;;;18.40;99.90;;;;;;493966;241;29418;-70
2022/08/18 04:09:44;;;;;;;5.17;4.77;;;18.30;99.90;;;;;;494062;241;29412;-70
2022/08/18 04:11:45;;;;;;;4.50;4.20;;;18.20;99.90;;;;;;494036;241;28920;-71
2022/08/18 04:13:47;;;;;;;5.23;4.83;;;18.20;99.90;;;;;;494035;241;28802;-70
2022/08/18 04:15:48;;;;;;;5.17;4.60;;;18.20;99.90;;;;;;493979;241;28993;-71
2022/08/18 04:17:49;;;;;;;5.07;4.57;;;18.10;99.90;;;;;;493950;241;28852;-69
2022/08/18 04:19:50;;;;;;;5.10;4.70;;;18.10;99.90;;;;;;494026;241;28879;-69
2022/08/18 04:21:52;;;;;;;5.07;4.67;;;18.10;99.90;;;;;;494017;241;28948;-71
2022/08/18 04:23:53;;;;;;;4.70;4.30;;;18.10;99.90;;;;;;494015;241;28820;-69
2022/08/18 04:25:54;;;;;;;5.37;4.97;;;18.10;99.90;;;;;;494015;241;28843;-70
2022/08/18 04:27:59;;;;;;;4.93;4.53;;;18.20;99.90;;;;;;493975;241;30093;-70
2022/08/18 04:29:57;;;;;;;5.37;4.53;;;18.20;99.90;;;;;;493791;241;29364;-70
2022/08/18 04:31:58;;;;;;;5.00;4.50;;;18.20;99.90;;;;;;494034;241;29398;-71
2022/08/18 04:33:59;;;;;;;7.27;4.53;;;18.20;99.90;;;;;;494036;241;29268;-70
2022/08/18 04:36:01;;;;;;;5.10;4.70;;;18.20;99.90;;;;;;493880;241;28822;-70
2022/08/18 04:38:02;;;;;;;5.03;4.63;;;18.20;99.90;;;;;;494033;241;28841;-70
2022/08/18 04:40:03;;;;;;;4.60;4.20;;;18.20;99.90;;;;;;494058;241;28801;-70
2022/08/18 04:42:04;;;;;;;4.90;4.60;;;18.20;99.90;;;;;;494069;241;28863;-70
2022/08/18 04:44:06;;;;;;;5.60;5.10;;;18.10;99.90;;;;;;494045;241;28794;-69
2022/08/18 04:46:07;;;;;;;4.77;4.37;;;18.10;99.90;;;;;;493979;241;28858;-75
2022/08/18 04:48:08;;;;;;;5.13;4.73;;;18.10;99.90;;;;;;494047;241;28872;-70
2022/08/18 04:50:10;;;;;;;5.60;5.20;;;18.10;99.90;;;;;;494036;241;28802;-70
2022/08/18 04:54:30;;;;;;;5.20;4.80;;;18.20;99.90;;;;;;494018;241;28887;-70
2022/08/18 04:56:32;;;;;;;5.97;5.47;;;18.20;99.90;;;;;;493964;241;28820;-70
2022/08/18 04:58:34;;;;;;;5.30;4.90;;;18.20;99.90;;;;;;493996;241;28841;-72
2022/08/18 05:00:34;;;;;;;4.83;4.53;;;18.20;99.90;;;;;;493925;241;28865;-70
2022/08/18 05:02:35;;;;;;;4.70;4.30;;;18.20;99.90;;;;;;494011;241;28845;-71
2022/08/18 05:04:36;;;;;;;5.53;5.13;;;18.20;99.90;;;;;;493995;241;29986;-70
2022/08/18 05:06:37;;;;;;;6.10;5.60;;;18.10;99.90;;;;;;493968;241;29342;-70
2022/08/18 05:08:39;;;;;;;5.80;5.30;;;18.10;99.90;;;;;;494037;241;29309;-72
2022/08/18 05:10:40;;;;;;;5.50;5.00;;;18.10;99.90;;;;;;494036;241;29251;-70
2022/08/18 05:12:41;;;;;;;5.70;5.13;;;18.10;99.90;;;;;;493991;241;28829;-70
2022/08/18 05:14:45;;;;;;;5.80;5.30;;;17.90;99.90;;;;;;494007;241;28848;-70
2022/08/18 05:16:48;;;;;;;5.80;5.30;;;17.80;99.90;;;;;;493974;241;29426;-74
2022/08/18 05:18:48;;;;;;;5.47;4.97;;;17.70;99.90;;;;;;493983;241;28932;-70
2022/08/18 05:20:50;;;;;;;5.20;4.80;;;17.80;99.90;;;;;;494012;241;28817;-70
2022/08/18 05:22:50;;;;;;;5.00;4.63;;;17.80;99.90;;;;;;493992;241;28875;-70
2022/08/18 05:24:52;;;;;;;5.20;4.80;;;17.80;99.90;;;;;;494009;241;28832;-70
2022/08/18 05:26:54;;;;;;;5.83;5.37;;;17.90;99.90;;;;;;493961;241;29361;-69
2022/08/18 05:28:54;;;;;;;6.63;6.03;;;17.80;99.90;;;;;;494018;241;28824;-70
2022/08/18 05:30:56;;;;;;;6.40;5.80;;;17.80;99.90;;;;;;494036;241;28854;-70
2022/08/18 05:32:58;;;;;;;6.10;5.60;;;17.80;99.90;;;;;;494004;241;28806;-70
2022/08/18 05:34:59;;;;;;;6.40;5.80;;;17.80;99.90;;;;;;493930;241;28862;-70
2022/08/18 05:36:59;;;;;;;6.63;6.03;;;17.80;99.90;;;;;;493765;241;29383;-73
2022/08/18 05:39:00;;;;;;;6.43;5.83;;;17.90;99.90;;;;;;494009;241;29309;-70
2022/08/18 05:41:02;;;;;;;6.40;5.70;;;18.00;99.90;;;;;;494012;241;29357;-71
2022/08/18 05:43:03;;;;;;;6.30;5.80;;;18.00;99.90;;;;;;493998;241;29280;-69
2022/08/18 05:45:04;;;;;;;6.40;5.87;;;18.10;99.90;;;;;;493999;241;28834;-70
2022/08/18 05:47:05;;;;;;;6.50;6.00;;;18.10;99.90;;;;;;493975;241;28829;-70
2022/08/18 05:49:07;;;;;;;7.10;6.20;;;18.10;99.90;;;;;;494018;241;28822;-70
2022/08/18 05:51:08;;;;;;;6.10;5.50;;;18.20;99.90;;;;;;494027;241;28930;-72
2022/08/18 05:53:09;;;;;;;6.77;6.17;;;18.20;99.90;;;;;;494040;241;28897;-70
2022/08/18 05:57:31;;;;;;;6.27;5.77;;;18.20;99.90;;;;;;493957;241;28882;-73
2022/08/18 05:59:31;;;;;;;6.23;5.73;;;18.20;99.90;;;;;;494005;241;28873;-70
2022/08/18 06:01:33;;;;;;;5.80;5.30;;;18.30;99.90;;;;;;494049;241;28925;-70
2022/08/18 06:03:34;;;;;;;6.27;5.77;;;18.30;99.90;;;;;;494061;241;28777;-70
2022/08/18 06:05:35;;;;;;;6.30;5.80;;;18.40;99.90;;;;;;494072;241;28838;-70
2022/08/18 06:07:36;;;;;;;5.37;4.97;;;18.40;99.90;;;;;;494005;241;28882;-73
2022/08/18 06:09:38;;;;;;;6.13;5.60;;;18.50;99.90;;;;;;494092;241;28804;-70
2022/08/18 06:11:39;;;;;;;6.20;5.70;;;18.50;99.90;;;;;;494073;241;28853;-70
2022/08/18 06:13:40;;;;;;;6.20;5.70;;;18.50;99.90;;;;;;494098;241;28804;-70
2022/08/18 06:15:41;;;;;;;7.03;6.43;;;18.50;99.90;;;;;;494025;241;29351;-70
2022/08/18 06:17:43;;;;;;;5.57;5.07;;;18.50;99.90;;;;;;493990;241;29346;-74
2022/08/18 06:19:44;;;;;;;6.40;5.80;;;18.60;99.90;;;;;;494042;241;29299;-70
2022/08/18 06:21:45;;;;;;;5.37;4.97;;;18.70;99.90;;;;;;494061;241;28922;-70
2022/08/18 06:23:47;;;;;;;6.40;5.80;;;18.70;99.90;;;;;;494024;241;28829;-70
2022/08/18 06:25:48;;;;;;;5.90;5.40;;;18.70;99.90;;;;;;493999;241;28913;-70
2022/08/18 06:27:54;;;;;;;6.93;6.20;;;18.70;99.90;;;;;;494023;241;28866;-73
2022/08/18 06:29:50;;;;;;;7.30;6.60;;;18.50;99.90;;;;;;493630;241;28818;-69
2022/08/18 06:31:51;;;;;;;8.43;7.60;;;18.60;99.90;;;;;;494062;241;28848;-71
2022/08/18 06:33:53;;;;;;;7.90;7.20;;;18.50;99.90;;;;;;494011;241;28859;-71
2022/08/18 06:35:54;;;;;;;8.80;8.00;;;18.60;99.90;;;;;;493901;241;28836;-70
2022/08/18 06:40:15;;;;;;;8.47;7.67;;;18.70;99.90;;;;;;494049;241;29249;-70
2022/08/18 06:42:16;;;;;;;8.07;7.37;;;18.80;99.90;;;;;;494041;241;29338;-70
2022/08/18 06:44:17;;;;;;;7.23;6.63;;;18.80;99.90;;;;;;494053;241;28853;-73
2022/08/18 06:46:18;;;;;;;8.03;7.23;;;18.80;99.90;;;;;;493992;241;28990;-70
2022/08/18 06:48:20;;;;;;;8.53;7.73;;;18.80;99.90;;;;;;494013;241;28942;-71
2022/08/18 06:50:21;;;;;;;8.33;7.63;;;18.80;99.90;;;;;;494044;241;28803;-70
2022/08/18 06:52:22;;;;;;;7.93;7.20;;;18.80;99.90;;;;;;494039;241;28868;-70
2022/08/18 06:54:25;;;;;;;8.60;7.70;;;18.80;99.90;;;;;;494040;241;28868;-73
2022/08/18 06:56:25;;;;;;;9.60;8.70;;;18.80;99.90;;;;;;493811;241;28930;-72
2022/08/18 06:58:26;;;;;;;8.40;7.60;;;18.80;99.90;;;;;;494051;241;28845;-69
2022/08/18 07:00:28;;;;;;;8.60;7.47;;;18.80;99.90;;;;;;494031;241;29525;-69
2022/08/18 07:02:28;;;;;;;8.97;7.80;;;18.80;99.90;;;;;;494022;241;29423;-70
2022/08/18 07:04:30;;;;;;;7.90;7.20;;;18.80;99.90;;;;;;494052;241;29351;-71
2022/08/18 07:06:31;;;;;;;8.47;7.70;;;18.80;99.90;;;;;;493990;241;29275;-68
2022/08/18 07:08:32;;;;;;;8.93;8.03;;;18.70;99.90;;;;;;494056;241;28910;-70
2022/08/18 07:10:33;;;;;;;8.90;8.10;;;18.70;99.90;;;;;;494053;241;28805;-69
2022/08/18 07:12:35;;;;;;;7.77;7.07;;;18.60;99.90;;;;;;494038;241;28832;-69
2022/08/18 07:14:36;;;;;;;10.47;9.37;;;18.60;99.90;;;;;;494031;239;28824;-71
2022/08/18 07:16:37;;;;;;;8.80;7.90;;;18.50;99.90;;;;;;493954;241;28814;-69
2022/08/18 07:18:38;;;;;;;11.30;9.07;;;18.50;99.90;;;;;;494021;241;28841;-70
2022/08/18 07:20:40;;;;;;;9.67;8.80;;;18.50;99.90;;;;;;494012;241;28813;-68
2022/08/18 07:22:41;;;;;;;9.57;8.67;;;18.50;99.90;;;;;;494034;241;28828;-69
2022/08/18 07:24:42;;;;;;;10.43;9.33;;;18.50;99.90;;;;;;494051;241;29328;-70
2022/08/18 07:26:43;;;;;;;10.83;9.73;;;18.50;99.90;;;;;;493950;241;29365;-69
2022/08/18 07:28:45;;;;;;;11.70;8.90;;;18.50;99.90;;;;;;494039;241;29432;-69
2022/08/18 07:30:46;;;;;;;12.17;10.00;;;18.50;99.90;;;;;;494010;241;28800;-69
2022/08/18 07:32:47;;;;;;;12.17;10.87;;;18.50;99.90;;;;;;494045;241;28799;-69
2022/08/18 07:34:50;;;;;;;9.40;8.60;;;18.50;99.90;;;;;;494035;241;28856;-73
2022/08/18 07:36:50;;;;;;;9.60;8.73;;;18.60;99.90;;;;;;493751;241;28800;-69
2022/08/18 07:38:52;;;;;;;12.70;10.10;;;18.70;99.90;;;;;;494042;241;28927;-70
2022/08/18 07:40:52;;;;;;;10.33;9.27;;;18.90;99.90;;;;;;493991;241;28799;-69
2022/08/18 07:42:53;;;;;;;9.03;8.23;;;18.70;99.90;;;;;;494083;241;29253;-69
2022/08/18 07:44:55;;;;;;;8.83;7.93;;;18.80;99.90;;;;;;494060;241;29328;-71
2022/08/18 07:46:57;;;;;;;8.70;8.00;;;18.80;99.90;;;;;;493980;241;29267;-69
2022/08/18 07:49:00;;;;;;;9.63;8.73;;;18.90;99.90;;;;;;493968;241;28843;-69
2022/08/18 07:51:01;;;;;;;8.20;7.50;;;18.80;99.90;;;;;;494026;241;29319;-69
2022/08/18 07:53:02;;;;;;;9.70;8.80;;;18.80;99.90;;;;;;493995;241;28816;-69
2022/08/18 07:55:04;;;;;;;9.53;8.50;;;18.80;99.90;;;;;;494035;241;28824;-69
2022/08/18 07:57:05;;;;;;;9.60;8.60;;;18.80;99.90;;;;;;494002;241;28870;-71
2022/08/18 07:59:06;;;;;;;11.47;10.27;;;18.80;99.90;;;;;;494069;241;28820;-69
2022/08/18 08:01:08;;;;;;;12.00;10.80;;;18.60;99.90;;;;;;494020;241;28822;-71
2022/08/18 08:03:10;;;;;;;14.13;12.67;;;18.70;99.90;;;;;;494039;241;28951;-69
2022/08/18 08:05:10;;;;;;;12.20;11.00;;;18.40;99.90;;;;;;493984;241;28916;-70
2022/08/18 08:07:11;;;;;;;13.27;11.90;;;18.40;99.90;;;;;;493956;241;29389;-72
2022/08/18 08:09:13;;;;;;;12.27;11.07;;;18.40;99.90;;;;;;493978;241;29267;-69
2022/08/18 08:11:15;;;;;;;11.70;10.43;;;18.40;99.90;;;;;;494013;241;28931;-70
2022/08/18 08:13:15;;;;;;;11.27;10.17;;;18.50;99.90;;;;;;493930;241;28819;-68
2022/08/18 08:15:16;;;;;;;11.00;9.90;;;18.40;99.90;;;;;;494027;241;28855;-70
2022/08/18 08:17:18;;;;;;;8.93;8.13;;;18.60;99.90;;;;;;493960;241;28844;-72
2022/08/18 08:19:19;;;;;;;9.97;8.97;;;18.60;99.90;;;;;;494043;241;28872;-70
2022/08/18 08:21:20;;;;;;;10.80;9.70;;;18.60;99.90;;;;;;494026;241;28870;-69
2022/08/18 08:23:22;;;;;;;10.67;9.57;;;18.70;99.90;;;;;;494009;241;29266;-69
2022/08/18 08:25:23;;;;;;;10.53;9.33;;;18.70;99.90;;;;;;493974;241;29310;-69
2022/08/18 08:27:24;;;;;;;9.70;8.70;;;18.70;99.90;;;;;;493972;241;29262;-69
2022/08/18 08:29:25;;;;;;;10.90;9.33;;;18.70;99.90;;;;;;494043;241;28804;-69
2022/08/18 08:31:26;;;;;;;10.60;9.50;;;18.60;99.90;;;;;;494025;241;28861;-71
2022/08/18 08:33:28;;;;;;;10.13;9.13;;;18.50;99.90;;;;;;493982;241;28900;-69
2022/08/18 08:35:29;;;;;;;11.93;10.60;;;18.50;99.90;;;;;;494009;241;28941;-70
2022/08/18 08:37:30;;;;;;;12.07;10.80;;;18.30;99.90;;;;;;493771;241;28858;-69
2022/08/18 08:39:31;;;;;;;11.73;10.53;;;18.40;99.90;;;;;;494015;241;28899;-69
2022/08/18 08:41:33;;;;;;;11.13;9.53;;;18.50;99.90;;;;;;493989;241;29290;-71
2022/08/18 08:43:34;;;;;;;10.37;9.37;;;18.50;99.90;;;;;;494001;241;29335;-70
2022/08/18 08:45:35;;;;;;;12.83;10.53;;;18.50;99.90;;;;;;493986;241;28868;-70
2022/08/18 08:47:36;;;;;;;10.10;9.10;;;18.50;99.90;;;;;;493968;241;28866;-72
2022/08/18 08:49:38;;;;;;;11.13;10.07;;;18.70;99.90;;;;;;494034;241;28822;-69
2022/08/18 08:51:39;;;;;;;10.80;9.70;;;18.50;99.90;;;;;;494032;241;28848;-71
2022/08/18 08:53:40;;;;;;;9.80;8.90;;;18.70;99.90;;;;;;494028;241;28913;-69
2022/08/18 08:55:42;;;;;;;10.20;9.10;;;18.90;99.90;;;;;;494016;241;28843;-69
2022/08/18 08:57:43;;;;;;;9.40;8.50;;;18.90;99.90;;;;;;493962;241;29327;-72
2022/08/18 08:59:45;;;;;;;10.73;9.43;;;18.90;99.90;;;;;;494013;241;29308;-69
2022/08/18 09:01:45;;;;;;;8.53;7.73;;;18.90;99.90;;;;;;493984;241;29381;-71
2022/08/18 09:03:46;;;;;;;8.90;8.00;;;18.80;99.90;;;;;;493975;241;28824;-69
2022/08/18 09:05:48;;;;;;;7.83;7.13;;;18.90;99.90;;;;;;494020;241;28822;-69
2022/08/18 09:07:49;;;;;;;8.33;7.53;;;18.80;99.90;;;;;;493977;241;28859;-72
2022/08/18 09:09:50;;;;;;;8.77;7.83;;;18.80;99.90;;;;;;494047;241;28864;-69
2022/08/18 09:11:51;;;;;;;8.87;8.07;;;18.80;99.90;;;;;;494045;241;28933;-70
2022/08/18 09:13:53;;;;;;;8.17;7.43;;;18.80;99.90;;;;;;493994;241;28911;-69
2022/08/18 09:15:54;;;;;;;7.90;7.20;;;18.80;99.90;;;;;;493987;241;28835;-69
2022/08/18 09:17:57;;;;;;;8.20;7.40;;;18.90;99.90;;;;;;493989;241;28864;-72
2022/08/18 09:19:57;;;;;;;8.53;7.73;;;19.00;99.90;;;;;;494025;237;28859;-70
2022/08/18 09:21:59;;;;;;;8.00;7.30;;;19.00;99.90;;;;;;494018;241;29209;-69
2022/08/18 09:24:00;;;;;;;8.20;7.50;;;19.10;99.90;;;;;;494016;241;29358;-69
2022/08/18 09:26:01;;;;;;;9.47;8.57;;;19.00;99.90;;;;;;494026;241;29392;-73
2022/08/18 09:28:02;;;;;;;8.50;7.70;;;18.90;99.90;;;;;;493246;241;36761;-69
2022/08/18 09:30:04;;;;;;;11.00;9.77;;;18.90;99.90;;;;;;494052;241;27971;-70
2022/08/18 09:32:05;;;;;;;9.30;8.50;;;18.70;99.90;;;;;;494039;241;28886;-69
2022/08/18 09:34:07;;;;;;;9.50;8.60;;;18.80;99.90;;;;;;493975;241;28907;-70
2022/08/18 09:36:08;;;;;;;10.80;9.77;;;18.80;99.90;;;;;;493707;241;28834;-71
2022/08/18 09:42:48;;;;;;;13.30;11.83;;;18.50;99.90;;;;;;494052;241;29329;-72
2022/08/18 09:44:49;;;;;;;12.50;11.30;;;18.30;99.90;;;;;;494040;241;28894;-69
2022/08/18 09:46:50;;;;;;;11.90;10.70;;;18.40;99.90;;;;;;493965;241;28938;-69
2022/08/18 09:48:52;;;;;;;10.97;9.87;;;18.40;99.90;;;;;;494081;241;28811;-69
2022/08/18 09:50:53;;;;;;;12.37;11.00;;;18.40;99.90;;;;;;494055;241;28933;-70
2022/08/18 09:52:54;;;;;;;12.37;11.07;;;18.40;99.90;;;;;;494047;241;28930;-72
2022/08/18 09:54:55;;;;;;;12.10;10.20;;;18.50;99.90;;;;;;494041;241;29248;-69
2022/08/18 09:56:57;;;;;;;10.73;9.63;;;18.50;99.90;;;;;;493935;241;29392;-70
2022/08/18 09:59:01;;;;;;;11.30;10.27;;;18.50;99.90;;;;;;493992;241;28871;-72
2022/08/18 10:00:59;;;;;;;12.50;11.20;;;18.50;99.90;;;;;;493809;241;28849;-70
2022/08/18 10:03:00;;;;;;;12.67;11.37;;;18.50;99.90;;;;;;494051;241;28945;-70
2022/08/18 10:05:02;;;;;;;12.33;11.03;;;18.50;99.90;;;;;;494049;241;28842;-69
2022/08/18 10:07:03;;;;;;;11.87;10.67;;;18.50;99.90;;;;;;493998;241;28923;-70
2022/08/18 10:09:04;;;;;;;10.47;9.47;;;18.50;99.90;;;;;;494077;241;29438;-72
2022/08/18 10:11:05;;;;;;;10.13;9.23;;;18.70;99.90;;;;;;494047;241;29263;-70
2022/08/18 10:13:07;;;;;;;12.23;11.03;;;18.70;99.90;;;;;;494021;241;29392;-70
2022/08/18 10:15:08;;;;;;;12.60;10.87;;;18.50;99.90;;;;;;494042;241;28954;-69
2022/08/18 10:17:09;;;;;;;12.80;11.53;;;18.50;99.90;;;;;;493960;241;28944;-70
2022/08/18 10:19:10;;;;;;;13.00;11.70;;;18.50;99.90;;;;;;494042;241;28863;-69
2022/08/18 10:21:19;;;;;;;11.93;10.83;;;18.50;99.90;;;;;;494040;241;28868;-70
2022/08/18 10:23:19;;;;;;;12.00;10.80;;;18.50;99.90;;;;;;493913;241;28845;-71
2022/08/18 10:25:20;;;;;;;13.27;11.87;;;18.60;99.90;;;;;;494016;241;28863;-71
2022/08/18 10:27:21;;;;;;;11.90;10.70;;;18.60;99.90;;;;;;493978;241;28945;-70
2022/08/18 10:29:23;;;;;;;12.47;11.27;;;18.70;99.90;;;;;;493904;241;30084;-69
2022/08/18 10:31:24;;;;;;;13.57;11.87;;;18.70;99.90;;;;;;494047;241;29268;-69
2022/08/18 10:33:25;;;;;;;12.57;11.30;;;18.70;99.90;;;;;;494057;241;28822;-71
2022/08/18 10:35:27;;;;;;;13.37;11.97;;;18.60;99.90;;;;;;494043;241;28795;-71
2022/08/18 10:37:28;;;;;;;15.10;12.10;;;18.60;99.90;;;;;;493863;241;28893;-71
2022/08/18 10:39:29;;;;;;;19.57;12.60;;;18.50;99.90;;;;;;494013;241;28796;-71
2022/08/18 10:41:30;;;;;;;13.93;12.53;;;18.40;99.90;;;;;;494038;241;28864;-71
2022/08/18 10:43:31;;;;;;;13.83;12.43;;;18.40;99.90;;;;;;494032;241;29305;-72